createdAt,value
2023-03-28T00:01:12.709Z,3.73
2023-03-28T00:03:40.881Z,2.03
2023-03-28T00:06:11.039Z,2.50
2023-03-28T00:08:40.396Z,3.60
2023-03-28T00:11:10.448Z,1.13
2023-03-28T00:13:38.790Z,4.43
2023-03-28T00:16:12.590Z,2.87
2023-03-28T00:18:41.433Z,2.70
2023-03-28T00:21:20.189Z,1.30
2023-03-28T00:23:51.485Z,3.07
2023-03-28T00:26:20.462Z,1.50
2023-03-28T00:28:48.114Z,1.97
2023-03-28T00:31:17.171Z,2.17
2023-03-28T00:33:47.719Z,5.70
2023-03-28T00:36:18.570Z,2.13
2023-03-28T00:38:46.432Z,2.60
2023-03-28T00:41:16.024Z,3.47
2023-03-28T00:43:45.379Z,6.37
2023-03-28T00:46:21.089Z,2.50
2023-03-28T00:48:52.653Z,2.77
2023-03-28T00:51:24.975Z,1.20
2023-03-28T00:53:53.908Z,5.27
2023-03-28T00:56:25.021Z,1.83
2023-03-28T00:58:53.647Z,6.53
2023-03-28T01:01:22.759Z,2.77
2023-03-28T01:03:56.260Z,2.13
2023-03-28T01:06:25.734Z,2.80
2023-03-28T01:08:54.015Z,4.77
2023-03-28T01:11:22.324Z,2.50
2023-03-28T01:13:53.026Z,3.57
2023-03-28T01:16:23.702Z,2.07
2023-03-28T01:18:52.500Z,2.97
2023-03-28T01:21:48.852Z,2.50
2023-03-28T01:25:00.129Z,2.63
2023-03-28T01:27:35.446Z,5.27
2023-03-28T01:30:37.855Z,4.40
2023-03-28T01:33:39.581Z,2.67
2023-03-28T01:36:38.750Z,4.20
2023-03-28T01:39:14.175Z,3.80
2023-03-28T01:41:52.061Z,4.47
2023-03-28T01:44:29.649Z,4.53
2023-03-28T01:47:02.105Z,4.37
2023-03-28T01:49:35.896Z,3.87
2023-03-28T01:52:15.139Z,4.87
2023-03-28T01:54:49.866Z,7.07
2023-03-28T01:57:24.130Z,5.47
2023-03-28T01:59:58.208Z,3.77
2023-03-28T02:02:31.758Z,5.43
2023-03-28T02:05:01.312Z,4.80
2023-03-28T02:07:33.972Z,4.27
2023-03-28T02:10:05.292Z,5.97
2023-03-28T02:12:38.088Z,5.03
2023-03-28T02:15:09.603Z,5.13
2023-03-28T02:17:43.982Z,5.47
2023-03-28T02:20:19.436Z,5.47
2023-03-28T02:22:52.544Z,7.13
2023-03-28T02:25:20.728Z,7.37
2023-03-28T02:27:53.199Z,5.43
2023-03-28T02:30:22.740Z,5.13
2023-03-28T02:32:51.612Z,7.40
2023-03-28T02:35:25.067Z,6.23
2023-03-28T02:38:00.560Z,6.80
2023-03-28T02:40:50.185Z,6.87
2023-03-28T02:43:38.097Z,5.83
2023-03-28T02:46:13.554Z,7.03
2023-03-28T02:49:01.425Z,7.83
2023-03-28T02:51:34.745Z,7.13
2023-03-28T02:54:19.863Z,6.70
2023-03-28T02:56:56.462Z,7.17
2023-03-28T02:59:28.495Z,7.30
2023-03-28T03:01:56.433Z,6.97
2023-03-28T03:04:24.362Z,6.97
2023-03-28T03:06:52.368Z,8.60
2023-03-28T03:09:23.097Z,7.63
2023-03-28T03:11:50.778Z,6.50
2023-03-28T03:14:18.457Z,8.13
2023-03-28T03:16:46.229Z,6.77
2023-03-28T03:19:13.860Z,7.40
2023-03-28T03:21:41.488Z,7.20
2023-03-28T03:24:10.441Z,10.20
2023-03-28T03:26:39.428Z,6.40
2023-03-28T03:29:07.760Z,6.83
2023-03-28T03:31:39.814Z,6.27
2023-03-28T03:34:07.549Z,6.13
2023-03-28T03:36:35.279Z,8.10
2023-03-28T03:39:03.653Z,7.23
2023-03-28T03:41:31.313Z,6.33
2023-03-28T03:44:00.818Z,5.80
2023-03-28T03:46:28.566Z,5.57
2023-03-28T03:48:56.296Z,10.73
2023-03-28T03:51:23.977Z,5.70
2023-03-28T03:53:51.686Z,7.30
2023-03-28T03:56:19.319Z,8.90
2023-03-28T03:58:46.932Z,8.13
2023-03-28T04:01:16.037Z,9.20
2023-03-28T04:03:44.035Z,8.60
2023-03-28T04:06:11.906Z,7.97
2023-03-28T04:08:39.599Z,8.67
2023-03-28T04:11:08.361Z,6.63
2023-03-28T04:13:35.989Z,6.60
2023-03-28T04:16:03.985Z,9.00
2023-03-28T04:18:34.097Z,5.90
2023-03-28T04:21:02.664Z,9.87
2023-03-28T04:23:30.387Z,9.30
2023-03-28T04:25:58.858Z,6.30
2023-03-28T04:28:27.918Z,7.33
2023-03-28T04:30:58.666Z,10.93
2023-03-28T04:33:27.057Z,7.67
2023-03-28T04:36:00.585Z,8.13
2023-03-28T04:38:31.728Z,8.63
2023-03-28T04:41:00.888Z,9.43
2023-03-28T04:43:29.074Z,7.87
2023-03-28T04:45:58.127Z,7.83
2023-03-28T04:48:27.694Z,7.80
2023-03-28T04:50:56.903Z,8.50
2023-03-28T04:53:25.675Z,9.20
2023-03-28T04:55:54.043Z,8.17
2023-03-28T04:58:24.406Z,7.73
2023-03-28T05:00:52.638Z,7.53
2023-03-28T05:03:23.776Z,10.07
2023-03-28T05:05:53.472Z,8.93
2023-03-28T05:08:25.174Z,6.43
2023-03-28T05:10:53.300Z,8.03
2023-03-28T05:13:23.509Z,8.23
2023-03-28T05:15:51.540Z,7.70
2023-03-28T05:18:19.530Z,8.77
2023-03-28T05:20:47.473Z,6.57
2023-03-28T05:23:15.555Z,7.57
2023-03-28T05:25:45.262Z,10.90
2023-03-28T05:28:13.399Z,8.60
2023-03-28T05:30:41.691Z,9.00
2023-03-28T05:33:09.701Z,6.93
2023-03-28T05:35:38.059Z,6.90
2023-03-28T05:38:06.286Z,9.77
2023-03-28T05:40:33.971Z,8.80
2023-03-28T05:43:03.184Z,5.60
2023-03-28T05:45:30.957Z,8.17
2023-03-28T05:47:58.704Z,12.57
2023-03-28T05:50:27.399Z,5.43
2023-03-28T05:52:55.126Z,7.73
2023-03-28T05:55:22.939Z,7.47
2023-03-28T05:57:50.820Z,6.67
2023-03-28T06:00:21.212Z,10.53
2023-03-28T06:02:50.432Z,9.33
2023-03-28T06:05:19.596Z,4.83
2023-03-28T06:07:47.451Z,6.13
2023-03-28T06:10:16.592Z,8.20
2023-03-28T06:12:44.400Z,7.07
2023-03-28T06:15:12.760Z,7.53
2023-03-28T06:17:41.954Z,11.77
2023-03-28T06:20:10.794Z,7.47
2023-03-28T06:22:38.850Z,9.17
2023-03-28T06:25:07.648Z,6.33
2023-03-28T06:27:35.926Z,4.13
2023-03-28T06:30:05.021Z,7.77
2023-03-28T06:32:32.814Z,7.23
2023-03-28T06:35:01.843Z,6.80
2023-03-28T06:37:29.590Z,5.70
2023-03-28T06:39:57.281Z,7.17
2023-03-28T06:42:25.279Z,6.83
2023-03-28T06:44:53.083Z,9.80
2023-03-28T06:47:20.825Z,7.40
2023-03-28T06:49:48.581Z,10.60
2023-03-28T06:52:17.741Z,7.70
2023-03-28T06:54:47.941Z,6.13
2023-03-28T06:57:17.039Z,9.57
2023-03-28T06:59:44.793Z,9.60
2023-03-28T07:02:12.769Z,9.93
2023-03-28T07:04:40.709Z,9.03
2023-03-28T07:07:09.399Z,9.97
2023-03-28T07:09:38.709Z,5.60
2023-03-28T07:12:06.958Z,3.57
2023-03-28T07:14:35.264Z,5.33
2023-03-28T07:17:03.062Z,7.10
2023-03-28T07:19:31.093Z,8.87
2023-03-28T07:21:59.206Z,5.53
2023-03-28T07:24:27.213Z,8.60
2023-03-28T07:27:11.794Z,6.87
2023-03-28T07:29:43.517Z,4.37
2023-03-28T07:32:11.394Z,4.63
2023-03-28T07:34:39.180Z,4.67
2023-03-28T07:37:06.960Z,4.23
2023-03-28T07:39:39.757Z,5.13
2023-03-28T07:42:11.748Z,6.10
2023-03-28T07:44:42.246Z,8.20
2023-03-28T07:47:11.057Z,5.17
2023-03-28T07:49:39.601Z,4.60
2023-03-28T07:52:07.468Z,2.33
2023-03-28T07:54:37.310Z,1.90
2023-03-28T07:57:05.353Z,4.20
2023-03-28T07:59:34.841Z,4.03
2023-03-28T08:02:02.930Z,5.20
2023-03-28T08:04:32.103Z,6.07
2023-03-28T08:07:00.517Z,5.70
2023-03-28T08:09:28.338Z,6.17
2023-03-28T08:11:56.305Z,5.27
2023-03-28T08:14:24.277Z,6.67
2023-03-28T08:16:54.357Z,4.53
2023-03-28T08:19:22.012Z,5.57
2023-03-28T08:21:49.673Z,3.60
2023-03-28T08:24:25.436Z,4.60
2023-03-28T08:27:01.974Z,3.87
2023-03-28T08:29:29.779Z,5.37
2023-03-28T08:31:58.870Z,4.53
2023-03-28T08:34:27.079Z,4.47
2023-03-28T08:36:54.790Z,3.93
2023-03-28T08:39:23.366Z,7.33
2023-03-28T08:42:25.283Z,3.27
2023-03-28T08:45:08.710Z,5.70
2023-03-28T08:47:48.082Z,5.80
2023-03-28T08:50:20.041Z,4.17
2023-03-28T08:52:48.440Z,5.60
2023-03-28T08:55:28.849Z,8.60
2023-03-28T08:57:57.586Z,6.73
2023-03-28T09:00:29.799Z,6.50
2023-03-28T09:02:59.644Z,4.70
2023-03-28T09:05:43.231Z,3.93
2023-03-28T09:08:29.047Z,3.60
2023-03-28T09:11:04.180Z,2.87
2023-03-28T09:13:46.306Z,3.37
2023-03-28T09:16:42.137Z,3.83
2023-03-28T09:19:36.943Z,2.87
2023-03-28T09:22:19.907Z,3.43
2023-03-28T09:25:02.241Z,3.30
2023-03-28T09:27:34.692Z,4.13
2023-03-28T09:30:17.365Z,2.30
2023-03-28T09:32:45.661Z,5.13
2023-03-28T09:35:18.633Z,2.77
2023-03-28T09:37:49.865Z,2.53
2023-03-28T09:40:22.401Z,3.03
2023-03-28T09:43:01.160Z,1.30
2023-03-28T09:45:40.635Z,4.20
2023-03-28T09:48:14.672Z,1.83
2023-03-28T09:50:44.705Z,2.87
2023-03-28T09:53:22.145Z,1.80
2023-03-28T09:56:03.314Z,2.47
2023-03-28T09:58:49.207Z,3.63
2023-03-28T10:01:33.037Z,2.87
2023-03-28T10:04:01.184Z,2.50
2023-03-28T10:06:32.137Z,1.17
2023-03-28T10:09:11.689Z,1.63
2023-03-28T10:11:48.708Z,4.00
2023-03-28T10:14:34.173Z,2.53
2023-03-28T10:17:04.556Z,3.20
2023-03-28T10:19:35.845Z,1.37
2023-03-28T10:22:08.388Z,1.37
2023-03-28T10:24:37.744Z,3.03
2023-03-28T10:27:17.221Z,1.90
2023-03-28T10:29:46.391Z,1.60
2023-03-28T10:32:15.043Z,1.47
2023-03-28T10:34:42.724Z,1.87
2023-03-28T10:37:26.327Z,3.33
2023-03-28T10:40:01.902Z,1.80
2023-03-28T10:42:41.523Z,3.23
2023-03-28T10:45:20.615Z,2.17
2023-03-28T10:47:50.371Z,3.47
2023-03-28T10:50:23.160Z,1.60
2023-03-28T10:52:58.577Z,5.03
2023-03-28T10:55:32.554Z,4.57
2023-03-28T10:58:07.577Z,3.93
2023-03-28T11:00:42.606Z,3.53
2023-03-28T11:03:25.265Z,1.57
2023-03-28T11:06:08.819Z,4.83
2023-03-28T11:08:49.892Z,5.20
2023-03-28T11:11:36.745Z,3.03
2023-03-28T11:14:13.566Z,2.63
2023-03-28T11:16:50.430Z,1.67
2023-03-28T11:19:33.177Z,3.13
2023-03-28T11:22:13.905Z,2.13
2023-03-28T11:24:52.131Z,2.47
2023-03-28T11:27:25.558Z,3.30
2023-03-28T11:29:55.747Z,2.87
2023-03-28T11:32:27.529Z,5.43
2023-03-28T11:35:03.984Z,4.33
2023-03-28T11:37:37.595Z,4.27
2023-03-28T11:40:16.293Z,2.67
2023-03-28T11:42:48.526Z,2.87
2023-03-28T11:45:37.938Z,3.50
2023-03-28T11:48:22.611Z,3.10
2023-03-28T11:51:00.053Z,2.13
2023-03-28T11:53:32.061Z,2.30
2023-03-28T11:56:06.810Z,3.57
2023-03-28T11:58:38.528Z,4.77
2023-03-28T12:01:11.755Z,1.40
2023-03-28T12:03:52.014Z,3.07
2023-03-28T12:06:27.040Z,1.50
2023-03-28T12:09:01.387Z,2.40
2023-03-28T12:11:36.742Z,1.33
2023-03-28T12:14:15.177Z,3.00
2023-03-28T12:16:47.850Z,2.87
2023-03-28T12:19:21.767Z,3.50
2023-03-28T12:21:52.567Z,1.73
2023-03-28T12:24:26.713Z,3.27
2023-03-28T12:27:07.724Z,1.93
2023-03-28T12:29:43.192Z,4.60
2023-03-28T12:32:26.485Z,2.63
2023-03-28T12:35:05.060Z,2.03
2023-03-28T12:37:39.765Z,5.80
2023-03-28T12:40:23.632Z,1.20
2023-03-28T12:42:55.764Z,2.83
2023-03-28T12:45:29.491Z,2.67
2023-03-28T12:48:02.950Z,2.00
2023-03-28T12:50:33.861Z,1.40
2023-03-28T12:53:01.925Z,3.27
2023-03-28T12:55:49.742Z,2.43
2023-03-28T12:58:26.032Z,2.80
2023-03-28T13:01:14.747Z,2.33
2023-03-28T13:03:53.280Z,1.30
2023-03-28T13:06:29.272Z,2.17
2023-03-28T13:09:17.829Z,2.47
2023-03-28T13:11:53.843Z,3.37
2023-03-28T13:14:38.324Z,2.40
2023-03-28T13:17:21.650Z,2.40
2023-03-28T13:19:53.162Z,1.77
2023-03-28T13:22:30.325Z,4.37
2023-03-28T13:25:27.283Z,2.90
2023-03-28T13:27:57.135Z,1.70
2023-03-28T13:30:28.791Z,4.00
2023-03-28T13:33:02.265Z,1.77
2023-03-28T13:35:47.229Z,2.07
2023-03-28T13:38:26.447Z,1.80
2023-03-28T13:40:55.969Z,2.40
2023-03-28T13:43:26.446Z,2.43
2023-03-28T13:45:58.946Z,1.93
2023-03-28T13:48:34.024Z,1.43
2023-03-28T13:51:06.635Z,2.70
2023-03-28T13:53:46.499Z,1.40
2023-03-28T13:56:24.211Z,1.20
2023-03-28T13:58:53.202Z,2.37
2023-03-28T14:01:25.807Z,1.33
2023-03-28T14:03:55.814Z,3.07
2023-03-28T14:06:25.508Z,1.57
2023-03-28T14:08:55.823Z,2.73
2023-03-28T14:11:30.333Z,2.20
2023-03-28T14:14:06.658Z,1.90
2023-03-28T14:16:38.505Z,2.40
2023-03-28T14:19:07.494Z,0.80
2023-03-28T14:21:35.927Z,2.33
2023-03-28T14:24:06.870Z,2.30
2023-03-28T14:26:36.929Z,2.07
2023-03-28T14:29:08.073Z,2.07
2023-03-28T14:31:40.294Z,1.33
2023-03-28T14:34:17.858Z,1.50
2023-03-28T14:36:58.823Z,3.20
2023-03-28T14:39:28.262Z,0.93
2023-03-28T14:41:58.390Z,1.37
2023-03-28T14:44:26.533Z,3.40
2023-03-28T14:46:58.043Z,1.43
2023-03-28T14:49:27.943Z,1.30
2023-03-28T14:51:58.163Z,1.10
2023-03-28T14:54:32.640Z,2.70
2023-03-28T14:57:01.725Z,2.80
2023-03-28T14:59:40.714Z,2.67
2023-03-28T15:02:21.522Z,1.43
2023-03-28T15:04:50.309Z,1.93
2023-03-28T15:07:24.014Z,1.67
2023-03-28T15:10:07.358Z,2.07
2023-03-28T15:12:42.120Z,2.37
2023-03-28T15:15:17.443Z,1.43
2023-03-28T15:17:47.333Z,0.80
2023-03-28T15:20:18.968Z,1.80
2023-03-28T15:22:50.500Z,1.37
2023-03-28T15:25:18.346Z,1.80
2023-03-28T15:27:51.987Z,0.87
2023-03-28T15:30:21.498Z,1.70
2023-03-28T15:32:51.727Z,4.13
2023-03-28T15:35:29.652Z,3.17
2023-03-28T15:38:08.549Z,1.47
2023-03-28T15:40:42.592Z,4.50
2023-03-28T15:43:30.793Z,1.20
2023-03-28T15:46:00.476Z,0.57
2023-03-28T15:48:34.723Z,2.40
2023-03-28T15:51:05.834Z,2.53
2023-03-28T15:53:34.785Z,3.17
2023-03-28T15:56:10.429Z,1.43
2023-03-28T15:58:43.603Z,1.50
2023-03-28T16:01:36.450Z,2.83
2023-03-28T16:04:37.718Z,4.57
2023-03-28T16:07:12.832Z,2.17
2023-03-28T16:09:43.091Z,1.40
2023-03-28T16:12:14.593Z,1.73
2023-03-28T16:14:47.627Z,2.20
2023-03-28T16:17:18.443Z,1.60
2023-03-28T16:19:48.966Z,3.33
2023-03-28T16:22:16.681Z,1.37
2023-03-28T16:24:44.344Z,2.63
2023-03-28T16:27:12.013Z,2.20
2023-03-28T16:29:39.757Z,2.20
2023-03-28T16:32:11.885Z,1.53
2023-03-28T16:34:39.724Z,4.03
2023-03-28T16:37:12.319Z,2.23
2023-03-28T16:39:40.279Z,2.70
2023-03-28T16:42:08.146Z,1.43
2023-03-28T16:44:35.924Z,2.60
2023-03-28T16:47:04.318Z,2.23
2023-03-28T16:49:32.164Z,1.47
2023-03-28T16:51:59.837Z,3.80
2023-03-28T16:54:28.995Z,2.67
2023-03-28T16:56:57.130Z,2.20
2023-03-28T16:59:24.958Z,1.53
2023-03-28T17:01:53.790Z,3.50
2023-03-28T17:04:21.602Z,4.07
2023-03-28T17:06:49.513Z,3.57
2023-03-28T17:09:17.215Z,1.47
2023-03-28T17:11:46.457Z,2.93
2023-03-28T17:14:14.221Z,2.43
2023-03-28T17:16:42.028Z,1.93
2023-03-28T17:19:09.669Z,1.07
2023-03-28T17:21:37.538Z,2.53
2023-03-28T17:24:09.140Z,2.30
2023-03-28T17:26:36.858Z,3.27
2023-03-28T17:29:07.685Z,1.80
2023-03-28T17:31:35.600Z,1.13
2023-03-28T17:34:04.266Z,1.27
2023-03-28T17:36:32.722Z,1.83
2023-03-28T17:39:01.845Z,2.00
2023-03-28T17:41:29.574Z,2.07
2023-03-28T17:43:58.514Z,2.90
2023-03-28T17:46:28.016Z,2.00
2023-03-28T17:48:55.722Z,1.23
2023-03-28T17:51:23.903Z,1.33
2023-03-28T17:53:51.755Z,1.10
2023-03-28T17:56:19.623Z,2.67
2023-03-28T17:58:47.678Z,1.27
2023-03-28T18:01:18.350Z,1.13
2023-03-28T18:03:48.061Z,1.57
2023-03-28T18:06:16.525Z,2.23
2023-03-28T18:08:45.024Z,3.10
2023-03-28T18:11:15.410Z,1.70
2023-03-28T18:13:43.574Z,3.83
2023-03-28T18:16:14.150Z,3.00
2023-03-28T18:18:42.400Z,2.80
2023-03-28T18:21:12.731Z,4.70
2023-03-28T18:23:41.444Z,2.47
2023-03-28T18:26:28.863Z,3.27
2023-03-28T18:28:56.734Z,6.80
2023-03-28T18:31:28.295Z,4.33
2023-03-28T18:33:57.577Z,2.90
2023-03-28T18:36:27.313Z,3.47
2023-03-28T18:38:55.908Z,6.90
2023-03-28T18:41:23.934Z,3.47
2023-03-28T18:43:51.799Z,4.03
2023-03-28T18:46:19.651Z,2.83
2023-03-28T18:48:47.507Z,3.87
2023-03-28T18:51:15.755Z,2.27
2023-03-28T18:53:45.001Z,3.10
2023-03-28T18:56:17.136Z,8.60
2023-03-28T18:58:46.055Z,3.03
2023-03-28T19:01:14.136Z,1.47
2023-03-28T19:03:43.409Z,2.40
2023-03-28T19:06:12.924Z,3.63
2023-03-28T19:08:41.352Z,1.70
2023-03-28T19:11:15.196Z,2.73
2023-03-28T19:13:43.872Z,2.67
2023-03-28T19:16:15.969Z,2.90
2023-03-28T19:18:45.627Z,6.87
2023-03-28T19:21:14.581Z,2.90
2023-03-28T19:23:42.802Z,1.90
2023-03-28T19:26:14.032Z,2.60
2023-03-28T19:28:42.341Z,3.83
2023-03-28T19:31:12.190Z,3.37
2023-03-28T19:33:41.729Z,3.20
2023-03-28T19:36:10.500Z,1.90
2023-03-28T19:38:39.463Z,3.67
2023-03-28T19:41:11.166Z,2.87
2023-03-28T19:43:41.313Z,1.57
2023-03-28T19:46:16.864Z,3.70
2023-03-28T19:48:44.726Z,4.27
2023-03-28T19:51:12.598Z,3.10
2023-03-28T19:53:41.277Z,4.50
2023-03-28T19:56:10.460Z,4.50
2023-03-28T19:58:38.394Z,3.33
2023-03-28T20:01:07.876Z,2.17
2023-03-28T20:03:35.607Z,2.50
2023-03-28T20:06:05.351Z,2.70
2023-03-28T20:08:35.346Z,3.03
2023-03-28T20:11:03.616Z,4.30
2023-03-28T20:13:31.910Z,1.70
2023-03-28T20:16:03.451Z,3.53
2023-03-28T20:18:33.302Z,2.27
2023-03-28T20:21:03.110Z,3.20
2023-03-28T20:23:34.715Z,3.87
2023-03-28T20:26:14.226Z,2.83
2023-03-28T20:28:41.928Z,3.30
2023-03-28T20:31:13.105Z,3.23
2023-03-28T20:33:42.388Z,2.33
2023-03-28T20:36:10.220Z,12.33
2023-03-28T20:38:39.300Z,1.50
2023-03-28T20:41:11.097Z,2.20
2023-03-28T20:43:42.729Z,2.70
2023-03-28T20:46:12.690Z,2.20
2023-03-28T20:48:42.101Z,1.73
2023-03-28T20:51:15.805Z,2.53
2023-03-28T20:53:44.881Z,1.67
2023-03-28T20:56:13.758Z,3.97
2023-03-28T20:58:42.476Z,2.57
2023-03-28T21:01:12.674Z,2.50
2023-03-28T21:03:48.214Z,2.63
2023-03-28T21:06:17.067Z,3.37
2023-03-28T21:08:46.978Z,2.27
2023-03-28T21:11:15.418Z,2.23
2023-03-28T21:13:43.494Z,3.70
2023-03-28T21:16:14.228Z,2.97
2023-03-28T21:18:43.930Z,2.40
2023-03-28T21:21:13.384Z,3.87
2023-03-28T21:23:42.203Z,3.23
2023-03-28T21:26:12.354Z,4.27
2023-03-28T21:28:40.840Z,1.77
2023-03-28T21:31:11.214Z,4.43
2023-03-28T21:33:40.341Z,2.60
2023-03-28T21:36:12.078Z,2.60
2023-03-28T21:38:40.793Z,1.67
2023-03-28T21:41:08.710Z,2.57
2023-03-28T21:43:36.947Z,1.90
2023-03-28T21:46:05.043Z,2.97
2023-03-28T21:48:33.153Z,3.90
2023-03-28T21:51:01.389Z,3.13
2023-03-28T21:53:32.303Z,3.70
2023-03-28T21:56:00.175Z,2.37
2023-03-28T21:58:30.784Z,4.43
2023-03-28T22:00:58.593Z,2.07
2023-03-28T22:03:27.498Z,3.43
2023-03-28T22:05:55.991Z,4.93
2023-03-28T22:08:24.175Z,1.87
2023-03-28T22:10:55.485Z,5.60
2023-03-28T22:13:23.887Z,3.63
2023-03-28T22:15:53.057Z,3.77
2023-03-28T22:18:25.525Z,2.97
2023-03-28T22:20:54.235Z,2.73
2023-03-28T22:23:22.688Z,5.33
2023-03-28T22:25:50.777Z,4.23
2023-03-28T22:28:21.085Z,1.80
2023-03-28T22:30:48.828Z,2.17
2023-03-28T22:33:16.658Z,2.97
2023-03-28T22:35:44.396Z,3.27
2023-03-28T22:38:12.211Z,3.13
2023-03-28T22:40:39.999Z,4.00
2023-03-28T22:43:07.722Z,3.10
2023-03-28T22:45:37.163Z,3.03
2023-03-28T22:48:14.502Z,2.20
2023-03-28T22:50:44.069Z,2.17
2023-03-28T22:53:14.182Z,4.00
2023-03-28T22:55:42.334Z,5.20
2023-03-28T22:58:10.016Z,4.23
2023-03-28T23:00:39.095Z,4.37
2023-03-28T23:03:08.002Z,3.60
2023-03-28T23:05:36.222Z,3.40
2023-03-28T23:08:04.733Z,2.70
2023-03-28T23:10:32.900Z,3.00
2023-03-28T23:13:01.164Z,1.97
2023-03-28T23:15:29.258Z,3.00
2023-03-28T23:17:58.604Z,6.03
2023-03-28T23:20:26.618Z,3.37
2023-03-28T23:22:54.903Z,2.60
2023-03-28T23:25:23.077Z,4.33
2023-03-28T23:27:50.936Z,2.73
2023-03-28T23:30:19.137Z,3.07
2023-03-28T23:32:46.833Z,3.00
2023-03-28T23:35:16.028Z,1.53
2023-03-28T23:37:44.801Z,1.93
2023-03-28T23:40:15.404Z,1.87
2023-03-28T23:42:44.697Z,1.93
2023-03-28T23:45:13.860Z,1.97
2023-03-28T23:47:41.732Z,1.77
2023-03-28T23:50:11.015Z,1.87
2023-03-28T23:52:40.288Z,1.50
2023-03-28T23:58:08.073Z,2.60
